Tamalco, Illinois
Current Conditions -  °F | °C
As of 7:55 PM on Friday 21 Nov 2014 (Local Time) from KENL Reporting Station
Overcast Overcast  
Wind Chill: 34°   Ceiling: 2400
Heat Index: 39°   Visibility: 10mi
Dew Point: 22°   Wind: 7mph
Humidity: 50%   Direction: 130°SE
Pressure: 30.31"   Gusts: NA
Location:  38.7527°N, 89.3215°W
Report Text: KENL 220155Z AUTO 13006KT 10SM OVC024 04/M06 A3031 RMK AO2 T00401057
Loading
Personal Weather Stations






























Interactive Weather Map New forecast layout! Learn more

10-Day Weather Forecast

Advertisements
Track Severe Weather on mobile